Time,TemperatureF,DewpointF,PressureIn,WindDirection,WindDirectionDegrees,WindSpeedMPH,WindSpeedGustMPH,Humidity,HourlyPrecipIn,Conditions,Clouds,dailyrainin,SoftwareType,DateUTC
2013-04-10 00:00:00,34.0,30.8,30.38,WNW,293,6.5,6.5,88,0.00,,,0.00,WUHU216HW,2013-04-10 05:00:00,
2013-04-10 00:05:00,34.0,30.8,30.38,WNW,293,6.5,6.5,88,0.00,,,0.00,WUHU216HW,2013-04-10 05:05:00,
2013-04-10 00:30:00,33.5,30.5,30.39,NNE,23,6.9,6.9,89,0.00,,,0.00,WUHU216HW,2013-04-10 05:30:00,
2013-04-10 00:35:00,33.5,30.5,30.39,NNE,23,6.9,6.9,89,0.00,,,0.00,WUHU216HW,2013-04-10 05:35:00,
2013-04-10 01:00:00,33.1,30.3,30.42,NE,45,3.4,3.4,89,0.01,,,0.00,WUHU216HW,2013-04-10 06:00:00,
2013-04-10 01:05:00,33.1,30.3,30.42,NE,45,3.4,3.4,89,0.01,,,0.00,WUHU216HW,2013-04-10 06:05:00,
2013-04-10 01:30:00,32.8,30.2,30.33,NE,45,8.5,8.5,90,0.01,,,0.00,WUHU216HW,2013-04-10 06:30:00,
2013-04-10 01:35:00,32.8,30.2,30.33,NE,45,8.5,8.5,90,0.01,,,0.00,WUHU216HW,2013-04-10 06:35:00,
2013-04-10 02:00:00,32.2,29.7,30.30,East,90,10.7,10.7,90,0.00,,,0.00,WUHU216HW,2013-04-10 07:00:00,
2013-04-10 02:05:00,32.2,29.7,30.30,East,90,10.7,10.7,90,0.00,,,0.00,WUHU216HW,2013-04-10 07:05:00,
2013-04-10 02:30:00,32.2,29.4,30.32,NE,45,7.8,7.8,89,0.00,,,0.00,WUHU216HW,2013-04-10 07:30:00,
2013-04-10 02:35:00,32.2,29.4,30.32,NE,45,7.8,7.8,89,0.00,,,0.00,WUHU216HW,2013-04-10 07:35:00,
2013-04-10 03:00:00,32.0,29.3,30.31,NNE,23,8.7,8.7,89,0.00,,,0.00,WUHU216HW,2013-04-10 08:00:00,
2013-04-10 03:05:00,32.0,29.3,30.31,NNE,23,8.7,8.7,89,0.00,,,0.00,WUHU216HW,2013-04-10 08:05:00,
2013-04-10 18:59:00,36.0,32.4,30.21,NNE,23,3.4,3.4,87,0.02,,,0.00,WUHU216HW,2013-04-10 23:59:00,
2013-04-10 19:04:00,36.0,32.4,30.21,NNE,23,3.4,3.4,87,0.02,,,0.00,WUHU216HW,2013-04-11 00:04:00,
2013-04-10 19:09:00,36.0,32.4,30.21,NNE,23,3.4,3.4,87,0.02,,,0.00,WUHU216HW,2013-04-11 00:09:00,
2013-04-10 19:29:00,35.8,32.2,30.19,NNW,338,1.6,1.6,87,0.01,,,0.22,WUHU216HW,2013-04-11 00:29:00,
2013-04-10 19:34:00,35.8,32.2,30.19,NNW,338,1.6,1.6,87,0.01,,,0.22,WUHU216HW,2013-04-11 00:34:00,
2013-04-10 19:59:00,35.8,32.2,30.16,NE,45,1.6,1.6,87,0.01,,,0.22,WUHU216HW,2013-04-11 00:59:00,
2013-04-10 20:04:00,35.8,32.2,30.16,NE,45,1.6,1.6,87,0.01,,,0.22,WUHU216HW,2013-04-11 01:04:00,
2013-04-10 20:29:00,36.0,32.1,30.14,ENE,68,2.0,2.0,86,0.01,,,0.23,WUHU216HW,2013-04-11 01:29:00,
2013-04-10 20:34:00,36.0,32.1,30.14,ENE,68,2.0,2.0,86,0.01,,,0.23,WUHU216HW,2013-04-11 01:34:00,
2013-04-10 20:59:00,36.0,31.9,30.14,ENE,68,0.4,0.4,85,0.01,,,0.23,WUHU216HW,2013-04-11 01:59:00,
2013-04-10 21:04:00,36.0,31.9,30.14,ENE,68,0.4,0.4,85,0.01,,,0.23,WUHU216HW,2013-04-11 02:04:00,
2013-04-10 21:29:00,36.4,32.2,30.16,East,90,0.4,0.4,85,0.01,,,0.24,WUHU216HW,2013-04-11 02:29:00,
2013-04-10 21:34:00,36.4,32.2,30.16,East,90,0.4,0.4,85,0.01,,,0.24,WUHU216HW,2013-04-11 02:34:00,
2013-04-10 21:59:00,36.4,32.2,30.19,SSW,203,0.2,0.2,85,0.00,,,0.24,WUHU216HW,2013-04-11 02:59:00,
2013-04-10 22:04:00,36.4,32.2,30.19,SSW,203,0.2,0.2,85,0.00,,,0.24,WUHU216HW,2013-04-11 03:04:00,
2013-04-10 22:29:00,35.8,32.0,30.17,ENE,68,0.4,0.4,86,0.00,,,0.24,WUHU216HW,2013-04-11 03:29:00,
2013-04-10 22:34:00,35.8,32.0,30.17,ENE,68,0.4,0.4,86,0.00,,,0.24,WUHU216HW,2013-04-11 03:34:00,
2013-04-10 22:59:00,35.6,31.8,30.16,NE,45,0.4,0.4,86,0.01,,,0.24,WUHU216HW,2013-04-11 03:59:00,
2013-04-10 23:00:00,35.6,31.8,30.16,NE,45,0.4,0.4,86,0.01,,,0.24,WUHU216HW,2013-04-11 04:00:00,
2013-04-10 23:05:00,35.6,31.8,30.16,NE,45,0.4,0.4,86,0.01,,,0.24,WUHU216HW,2013-04-11 04:05:00,
2013-04-10 23:29:00,35.3,31.4,30.13,ENE,68,2.5,2.5,86,0.01,,,0.25,WUHU216HW,2013-04-11 04:29:00,
2013-04-10 23:34:00,35.3,31.4,30.13,ENE,68,2.5,2.5,86,0.01,,,0.25,WUHU216HW,2013-04-11 04:34:00,
2013-04-10 23:59:00,35.6,31.8,30.12,NE,45,3.6,3.6,86,0.01,,,0.00,WUHU216HW,2013-04-11 04:59:00,